Time;durP1;ratioP1;P1;durP2;ratioP2;P2;SDS_P1;SDS_P2;PMS_P1;PMS_P2;Temp;Humidity;BMP_temperature;BMP_pressure;BME280_temperature;BME280_humidity;BME280_pressure;Samples;Min_cycle;Max_cycle;Signal;HPM_P1;HPM_P2
2024/01/25 00:01:11;;;;;;;0.05;0.05;;;6.90;86.80;;;;;;4980048;28;20042;-72
2024/01/25 00:03:37;;;;;;;0.10;0.10;;;6.90;86.80;;;;;;4970826;28;20407;-72
2024/01/25 00:06:04;;;;;;;0.47;0.47;;;6.90;87.00;;;;;;4968636;28;20578;-72
2024/01/25 00:08:30;;;;;;;0.57;0.57;;;6.90;87.20;;;;;;4984360;28;20180;-72
2024/01/25 00:10:56;;;;;;;0.08;0.08;;;6.90;87.10;;;;;;4979792;28;20125;-72
2024/01/25 00:13:21;;;;;;;0.30;0.30;;;6.80;87.10;;;;;;4969807;28;20417;-72
2024/01/25 00:15:47;;;;;;;0.10;0.10;;;6.80;87.20;;;;;;4970121;28;20051;-72
2024/01/25 00:18:13;;;;;;;0.57;0.57;;;6.80;87.30;;;;;;4968410;28;20408;-72
2024/01/25 00:20:38;;;;;;;7.57;2.95;;;6.70;87.40;;;;;;4964662;28;20409;-72
2024/01/25 00:23:04;;;;;;;0.30;0.30;;;6.70;87.70;;;;;;4954878;28;20790;-72
2024/01/25 00:25:30;;;;;;;0.00;0.00;;;6.70;87.60;;;;;;4969256;28;20043;-72
2024/01/25 00:27:55;;;;;;;3.22;2.15;;;6.70;87.60;;;;;;4969988;28;20445;-72
2024/01/25 00:30:21;;;;;;;0.20;0.20;;;6.70;87.70;;;;;;4974147;28;20743;-72
2024/01/25 00:32:47;;;;;;;1.65;1.20;;;6.70;87.90;;;;;;4968918;28;20547;-72
2024/01/25 00:35:14;;;;;;;0.73;0.73;;;6.70;87.90;;;;;;4969873;28;20479;-72
2024/01/25 00:37:41;;;;;;;3.10;1.65;;;6.70;87.80;;;;;;4967599;28;20050;-72
2024/01/25 00:40:08;;;;;;;0.20;0.20;;;6.80;87.80;;;;;;4969814;28;20404;-72
2024/01/25 00:42:39;;;;;;;0.10;0.10;;;6.80;87.80;;;;;;4971342;28;20507;-72
2024/01/25 00:45:05;;;;;;;0.13;0.13;;;6.80;87.90;;;;;;4969714;28;20059;-72
2024/01/25 00:47:31;;;;;;;0.00;0.00;;;6.70;87.80;;;;;;4966640;28;20085;-72
2024/01/25 00:49:57;;;;;;;0.47;0.47;;;6.70;87.90;;;;;;4969557;28;20079;-72
2024/01/25 00:52:23;;;;;;;0.00;0.00;;;6.70;87.90;;;;;;4968261;28;20059;-72
2024/01/25 00:54:48;;;;;;;0.38;0.38;;;6.80;88.10;;;;;;4968759;28;20050;-72
2024/01/25 00:57:14;;;;;;;6.43;3.72;;;6.80;88.00;;;;;;4967589;28;20134;-72
2024/01/25 00:59:40;;;;;;;0.05;0.05;;;6.70;87.90;;;;;;4969308;28;20485;-71
2024/01/25 01:02:11;;;;;;;0.00;0.00;;;6.70;87.90;;;;;;4969126;28;20120;-72
2024/01/25 01:04:37;;;;;;;0.00;0.00;;;6.80;87.90;;;;;;4969281;28;20046;-72
2024/01/25 01:07:03;;;;;;;0.15;0.15;;;6.70;88.20;;;;;;4958353;28;20047;-72
2024/01/25 01:09:29;;;;;;;1.30;1.13;;;6.70;88.00;;;;;;4966123;28;20050;-72
2024/01/25 01:11:55;;;;;;;2.15;2.05;;;6.70;88.20;;;;;;4968598;28;20055;-72
2024/01/25 01:14:20;;;;;;;1.35;1.27;;;6.70;88.10;;;;;;4966224;28;20475;-72
2024/01/25 01:16:46;;;;;;;0.03;0.03;;;6.70;88.20;;;;;;4959118;28;20105;-72
2024/01/25 01:19:12;;;;;;;1.17;1.08;;;6.70;88.50;;;;;;4968811;28;21046;-72
2024/01/25 01:21:43;;;;;;;17.75;2.05;;;6.60;88.60;;;;;;4968666;28;20051;-72
2024/01/25 01:24:10;;;;;;;0.00;0.00;;;6.60;88.70;;;;;;4968449;28;20068;-72
2024/01/25 01:26:36;;;;;;;0.40;0.40;;;6.60;88.80;;;;;;4968660;28;20531;-72
2024/01/25 01:29:02;;;;;;;0.10;0.10;;;6.50;88.90;;;;;;4968533;28;20047;-72
2024/01/25 01:31:27;;;;;;;0.10;0.10;;;6.50;89.10;;;;;;4968457;28;20054;-72
2024/01/25 01:33:53;;;;;;;0.08;0.08;;;6.50;89.00;;;;;;4967356;28;20097;-72
2024/01/25 01:36:19;;;;;;;0.68;0.38;;;6.50;89.00;;;;;;4951948;28;20051;-72
2024/01/25 01:38:44;;;;;;;0.10;0.10;;;6.40;89.10;;;;;;4966494;28;20077;-73
2024/01/25 01:41:12;;;;;;;1.42;1.42;;;6.50;89.20;;;;;;4968431;28;20050;-71
2024/01/25 01:43:38;;;;;;;0.00;0.00;;;6.50;89.40;;;;;;4968311;28;20089;-72
2024/01/25 01:46:11;;;;;;;1.17;1.02;;;6.40;89.40;;;;;;4967814;28;20412;-71
2024/01/25 01:48:39;;;;;;;0.30;0.30;;;6.40;89.40;;;;;;4964692;28;20530;-71
2024/01/25 01:51:05;;;;;;;0.00;0.00;;;6.40;89.50;;;;;;4967986;28;20081;-71
2024/01/25 01:53:33;;;;;;;0.28;0.28;;;6.40;89.60;;;;;;4968053;28;20051;-71
2024/01/25 01:55:59;;;;;;;0.00;0.00;;;6.40;89.40;;;;;;4968521;28;20053;-71
2024/01/25 01:58:26;;;;;;;0.08;0.08;;;6.40;89.50;;;;;;4962622;28;20046;-72
2024/01/25 02:00:53;;;;;;;0.55;0.55;;;6.40;89.40;;;;;;4966857;28;20488;-72
2024/01/25 02:03:19;;;;;;;0.45;0.45;;;6.40;89.40;;;;;;4967415;28;20046;-72
2024/01/25 02:05:45;;;;;;;0.75;0.75;;;6.30;89.80;;;;;;4968525;28;20047;-72
2024/01/25 02:08:11;;;;;;;0.00;0.00;;;6.30;89.60;;;;;;4968550;28;20043;-72
2024/01/25 02:10:36;;;;;;;0.10;0.10;;;6.30;89.80;;;;;;4968994;28;20361;-71
2024/01/25 02:13:02;;;;;;;0.32;0.32;;;6.30;89.80;;;;;;4967845;28;20058;-72
2024/01/25 02:15:27;;;;;;;0.68;0.68;;;6.30;89.70;;;;;;4968961;28;20050;-72
2024/01/25 02:17:53;;;;;;;0.47;0.47;;;6.30;89.80;;;;;;4955650;28;20035;-72
2024/01/25 02:20:19;;;;;;;0.90;0.90;;;6.20;89.90;;;;;;4978083;28;20112;-72
2024/01/25 02:22:44;;;;;;;3.65;2.42;;;6.20;90.10;;;;;;4966011;28;20043;-72
2024/01/25 02:25:10;;;;;;;0.00;0.00;;;6.20;90.10;;;;;;4967888;28;20078;-71
2024/01/25 02:27:38;;;;;;;16.55;0.73;;;6.40;90.10;;;;;;4956098;28;20047;-72
2024/01/25 02:30:06;;;;;;;0.00;0.00;;;6.30;89.70;;;;;;4980032;28;20043;-72
2024/01/25 02:32:32;;;;;;;1.42;1.33;;;6.30;89.70;;;;;;4955352;28;20572;-72
2024/01/25 02:34:58;;;;;;;0.63;0.63;;;6.30;89.90;;;;;;4966478;28;20050;-71
2024/01/25 02:37:24;;;;;;;0.10;0.10;;;6.20;89.80;;;;;;4986745;28;20044;-72
2024/01/25 02:39:50;;;;;;;0.10;0.10;;;6.20;89.80;;;;;;4973614;28;20102;-71
2024/01/25 02:42:16;;;;;;;0.68;0.68;;;6.30;89.80;;;;;;4966111;28;20054;-72
2024/01/25 02:44:43;;;;;;;0.17;0.17;;;6.20;89.90;;;;;;4958281;28;20063;-72
2024/01/25 02:47:09;;;;;;;0.00;0.00;;;6.30;89.70;;;;;;4961817;28;20091;-71
2024/01/25 02:49:34;;;;;;;1.00;1.00;;;6.30;89.80;;;;;;4963223;28;20626;-71
2024/01/25 02:52:00;;;;;;;0.10;0.10;;;6.20;89.80;;;;;;4967240;28;20054;-71
2024/01/25 02:54:26;;;;;;;0.32;0.32;;;6.20;89.80;;;;;;4967247;28;20449;-71
2024/01/25 02:56:52;;;;;;;0.40;0.40;;;6.20;89.70;;;;;;4961250;28;20090;-72
2024/01/25 02:59:17;;;;;;;0.10;0.10;;;6.20;89.70;;;;;;4953109;28;20070;-71
2024/01/25 03:01:44;;;;;;;0.30;0.30;;;6.30;89.70;;;;;;4965923;28;20121;-71
2024/01/25 03:04:10;;;;;;;0.00;0.00;;;6.20;89.60;;;;;;4965655;28;20053;-71
2024/01/25 03:06:37;;;;;;;0.10;0.10;;;6.10;89.90;;;;;;4948618;28;20048;-71
2024/01/25 03:09:04;;;;;;;1.85;0.88;;;6.10;90.00;;;;;;4952966;28;20046;-71
2024/01/25 03:11:30;;;;;;;0.00;0.00;;;6.10;90.00;;;;;;4966988;28;20063;-71
2024/01/25 03:13:57;;;;;;;0.13;0.13;;;6.00;90.10;;;;;;4964706;28;20048;-71
2024/01/25 03:16:22;;;;;;;42.40;1.65;;;6.10;90.10;;;;;;4969551;28;20952;-71
2024/01/25 03:18:48;;;;;;;0.08;0.08;;;6.00;90.10;;;;;;4978703;28;20123;-71
2024/01/25 03:21:14;;;;;;;0.25;0.25;;;6.00;90.10;;;;;;4970428;28;20091;-72
2024/01/25 03:23:39;;;;;;;0.10;0.10;;;6.00;90.10;;;;;;4970174;28;20086;-72
2024/01/25 03:26:05;;;;;;;0.00;0.00;;;6.00;90.10;;;;;;4963985;28;20121;-71
2024/01/25 03:28:32;;;;;;;0.63;0.63;;;6.10;90.10;;;;;;4971028;28;20790;-72
2024/01/25 03:30:58;;;;;;;0.30;0.30;;;6.00;90.30;;;;;;4978968;28;20046;-71
2024/01/25 03:33:25;;;;;;;0.00;0.00;;;5.90;90.30;;;;;;4969410;28;20038;-71
2024/01/25 03:35:51;;;;;;;0.00;0.00;;;5.90;90.50;;;;;;4968766;28;20057;-71
2024/01/25 03:38:17;;;;;;;0.32;0.32;;;5.90;90.40;;;;;;4970492;28;20051;-71
2024/01/25 03:40:43;;;;;;;0.03;0.03;;;5.90;90.30;;;;;;4973409;28;20039;-72
2024/01/25 03:43:08;;;;;;;0.65;0.55;;;5.90;90.50;;;;;;4970115;28;20238;-71
2024/01/25 03:45:34;;;;;;;1.00;1.00;;;5.90;90.70;;;;;;4969067;28;20043;-71
2024/01/25 03:47:59;;;;;;;0.00;0.00;;;5.80;90.70;;;;;;4970865;28;20117;-71
2024/01/25 03:50:26;;;;;;;1.50;1.40;;;5.80;90.80;;;;;;4969566;28;20571;-71
2024/01/25 03:52:52;;;;;;;0.10;0.10;;;5.90;90.70;;;;;;4958052;28;20097;-71
2024/01/25 03:55:17;;;;;;;0.00;0.00;;;5.70;90.70;;;;;;4957709;28;20055;-71
2024/01/25 03:57:44;;;;;;;0.43;0.43;;;5.80;90.90;;;;;;4969591;28;20051;-71
2024/01/25 04:00:11;;;;;;;16.45;2.28;;;5.80;90.90;;;;;;4970317;28;20042;-71
2024/01/25 04:02:36;;;;;;;0.00;0.00;;;5.70;90.80;;;;;;4969108;28;20054;-71
2024/01/25 04:05:03;;;;;;;0.35;0.35;;;5.70;91.00;;;;;;4972826;28;20046;-71
2024/01/25 04:07:28;;;;;;;0.10;0.10;;;5.80;91.10;;;;;;4976787;28;20161;-71
2024/01/25 04:09:54;;;;;;;0.00;0.00;;;5.70;91.20;;;;;;4978979;28;20133;-71
2024/01/25 04:12:20;;;;;;;7.18;1.40;;;5.70;91.20;;;;;;4970308;28;20061;-71
2024/01/25 04:14:45;;;;;;;0.20;0.20;;;5.70;91.30;;;;;;4969573;28;20062;-71
2024/01/25 04:17:11;;;;;;;0.00;0.00;;;5.60;91.30;;;;;;4968769;28;20053;-71
2024/01/25 04:19:37;;;;;;;0.10;0.10;;;5.60;91.30;;;;;;4969943;28;20059;-71
2024/01/25 04:22:02;;;;;;;0.05;0.05;;;5.70;91.40;;;;;;4969330;28;20071;-71
2024/01/25 04:24:28;;;;;;;2.20;2.00;;;5.60;91.40;;;;;;4969737;28;20141;-71
2024/01/25 04:26:54;;;;;;;0.10;0.10;;;5.60;91.40;;;;;;4967940;28;20094;-71
2024/01/25 04:29:19;;;;;;;0.10;0.10;;;5.60;91.60;;;;;;4968457;28;20138;-72
2024/01/25 04:31:46;;;;;;;2.83;2.28;;;5.60;91.50;;;;;;4983856;28;20408;-71
2024/01/25 04:34:15;;;;;;;0.20;0.20;;;5.60;91.60;;;;;;4968182;28;20050;-72
2024/01/25 04:36:42;;;;;;;0.00;0.00;;;5.60;91.60;;;;;;4967286;28;20218;-72
2024/01/25 04:39:07;;;;;;;0.75;0.75;;;5.60;91.70;;;;;;4969586;28;20130;-72
2024/01/25 04:41:33;;;;;;;0.00;0.00;;;5.60;91.60;;;;;;4969534;28;20109;-72
2024/01/25 04:43:59;;;;;;;1.27;1.17;;;5.60;91.80;;;;;;4969361;28;20838;-71
2024/01/25 04:46:24;;;;;;;4.47;3.25;;;5.60;91.80;;;;;;4968415;28;20054;-72
2024/01/25 04:48:50;;;;;;;0.00;0.00;;;5.50;91.80;;;;;;4957796;28;20035;-72
2024/01/25 04:51:17;;;;;;;0.10;0.10;;;5.50;91.80;;;;;;4956531;28;20491;-72
2024/01/25 04:53:42;;;;;;;0.52;0.52;;;5.50;91.80;;;;;;4966631;28;20133;-72
2024/01/25 04:56:08;;;;;;;0.00;0.00;;;5.60;91.80;;;;;;4968355;28;20115;-72
2024/01/25 04:58:34;;;;;;;25.58;0.85;;;5.40;91.60;;;;;;4968554;28;20061;-72
2024/01/25 05:01:00;;;;;;;25.30;2.65;;;5.50;91.80;;;;;;4969311;28;20108;-72
2024/01/25 05:03:26;;;;;;;3.08;1.65;;;5.40;91.80;;;;;;4970167;28;20051;-72
2024/01/25 05:05:52;;;;;;;0.10;0.10;;;5.40;91.90;;;;;;4957391;28;20047;-72
2024/01/25 05:08:17;;;;;;;0.10;0.10;;;5.50;92.00;;;;;;4953036;28;20051;-72
2024/01/25 05:10:43;;;;;;;0.10;0.10;;;5.40;91.90;;;;;;4968765;28;20042;-72
2024/01/25 05:13:09;;;;;;;0.00;0.00;;;5.40;91.90;;;;;;4981364;28;20051;-72
2024/01/25 05:15:35;;;;;;;0.00;0.00;;;5.40;91.90;;;;;;4973369;28;20039;-72
2024/01/25 05:18:02;;;;;;;0.10;0.10;;;5.40;92.00;;;;;;4973303;28;20045;-72
2024/01/25 05:20:32;;;;;;;0.20;0.20;;;5.40;91.80;;;;;;4973202;28;20051;-72
2024/01/25 05:22:58;;;;;;;9.07;1.13;;;5.30;91.80;;;;;;4969809;28;20155;-72
2024/01/25 05:25:26;;;;;;;0.00;0.00;;;5.30;91.90;;;;;;4964409;28;20043;-72
2024/01/25 05:27:52;;;;;;;0.75;0.75;;;5.30;91.90;;;;;;4969808;28;20489;-72
2024/01/25 05:30:18;;;;;;;1.02;1.02;;;5.30;91.90;;;;;;4969374;28;20050;-72
2024/01/25 05:32:44;;;;;;;0.10;0.10;;;5.20;91.90;;;;;;4968805;28;20463;-72
2024/01/25 05:35:09;;;;;;;0.00;0.00;;;5.20;91.90;;;;;;4966882;28;20053;-72
2024/01/25 05:37:35;;;;;;;0.00;0.00;;;5.20;91.90;;;;;;4967452;28;20042;-72
2024/01/25 05:40:01;;;;;;;0.05;0.05;;;5.30;91.90;;;;;;4960440;28;20055;-72
2024/01/25 05:42:27;;;;;;;0.00;0.00;;;5.20;91.90;;;;;;4966145;28;20100;-72
2024/01/25 05:44:53;;;;;;;0.00;0.00;;;5.20;91.90;;;;;;4968049;28;20728;-72
2024/01/25 05:47:18;;;;;;;0.80;0.80;;;5.20;91.80;;;;;;4967355;28;20073;-73
2024/01/25 05:49:44;;;;;;;0.00;0.00;;;5.20;91.90;;;;;;4982447;28;20579;-73
2024/01/25 05:52:10;;;;;;;0.10;0.10;;;5.20;92.00;;;;;;4968024;28;20047;-72
2024/01/25 05:54:36;;;;;;;0.10;0.10;;;5.20;92.00;;;;;;4961950;28;20073;-72
2024/01/25 05:57:02;;;;;;;0.73;0.38;;;5.20;91.90;;;;;;4965473;28;20225;-71
2024/01/25 05:59:27;;;;;;;0.10;0.10;;;5.20;91.90;;;;;;4956730;28;20038;-72
2024/01/25 06:01:53;;;;;;;0.00;0.00;;;5.10;91.80;;;;;;4967298;28;20821;-72
2024/01/25 06:04:19;;;;;;;0.15;0.15;;;5.10;91.80;;;;;;4965349;28;20050;-72
2024/01/25 06:06:44;;;;;;;0.00;0.00;;;5.10;91.80;;;;;;4968098;28;20520;-72
2024/01/25 06:09:10;;;;;;;0.10;0.10;;;5.00;91.80;;;;;;4966950;28;20039;-72
2024/01/25 06:11:37;;;;;;;0.10;0.10;;;5.10;91.80;;;;;;4967140;28;20920;-72
2024/01/25 06:14:04;;;;;;;0.00;0.00;;;5.10;91.70;;;;;;4954749;28;20601;-72
2024/01/25 06:16:30;;;;;;;0.08;0.08;;;5.00;91.80;;;;;;4967259;28;20126;-71
2024/01/25 06:18:56;;;;;;;0.10;0.10;;;5.00;91.70;;;;;;4948195;28;20135;-72
2024/01/25 06:21:21;;;;;;;4.80;2.92;;;4.90;91.60;;;;;;4960968;28;20122;-72
2024/01/25 06:23:47;;;;;;;0.10;0.10;;;4.90;91.70;;;;;;4967096;28;20042;-72
2024/01/25 06:26:12;;;;;;;0.00;0.00;;;4.90;91.70;;;;;;4967432;28;20101;-70
2024/01/25 06:28:39;;;;;;;0.00;0.00;;;4.80;91.70;;;;;;4982158;28;20568;-70
2024/01/25 06:31:05;;;;;;;3.00;1.30;;;4.90;91.70;;;;;;4966137;28;20054;-70
2024/01/25 06:33:31;;;;;;;0.08;0.08;;;4.90;91.80;;;;;;4966834;28;20886;-70
2024/01/25 06:35:57;;;;;;;0.10;0.10;;;4.90;91.80;;;;;;4968314;28;20045;-70
2024/01/25 06:38:23;;;;;;;0.00;0.00;;;4.90;91.70;;;;;;4968316;28;21020;-70
2024/01/25 06:40:49;;;;;;;0.10;0.10;;;4.90;91.70;;;;;;4962015;28;20031;-70
2024/01/25 06:43:14;;;;;;;0.00;0.00;;;4.90;91.70;;;;;;4972446;28;20046;-70
2024/01/25 06:45:40;;;;;;;0.00;0.00;;;4.90;91.70;;;;;;4967059;28;20101;-67
2024/01/25 06:48:08;;;;;;;0.10;0.10;;;4.90;91.70;;;;;;4965941;28;20776;-70
2024/01/25 06:50:34;;;;;;;0.00;0.00;;;5.00;91.60;;;;;;4975969;28;20527;-70
2024/01/25 06:53:00;;;;;;;0.00;0.00;;;4.90;91.50;;;;;;4969258;28;20058;-70
2024/01/25 06:55:26;;;;;;;2.20;0.98;;;4.90;91.50;;;;;;4962904;28;20051;-70
2024/01/25 06:57:51;;;;;;;0.10;0.10;;;4.90;91.40;;;;;;4966325;28;20121;-70
2024/01/25 07:00:18;;;;;;;0.05;0.05;;;4.90;91.50;;;;;;4980470;28;20093;-70
2024/01/25 07:02:44;;;;;;;0.00;0.00;;;4.90;91.40;;;;;;4963592;28;20496;-70
2024/01/25 07:05:10;;;;;;;0.00;0.00;;;4.90;91.50;;;;;;4971149;28;20051;-73
2024/01/25 07:07:38;;;;;;;0.00;0.00;;;4.90;91.50;;;;;;4966963;28;20058;-73
2024/01/25 07:10:05;;;;;;;0.00;0.00;;;4.90;91.50;;;;;;4962062;28;20050;-72
2024/01/25 07:12:31;;;;;;;0.03;0.03;;;4.90;91.60;;;;;;4969405;28;20051;-71
2024/01/25 07:14:57;;;;;;;0.10;0.10;;;4.80;91.50;;;;;;4967852;28;20053;-72
2024/01/25 07:17:22;;;;;;;0.08;0.08;;;4.90;91.60;;;;;;4968424;28;20046;-74
2024/01/25 07:19:48;;;;;;;0.00;0.00;;;4.90;91.50;;;;;;4968190;28;20043;-74
2024/01/25 07:22:15;;;;;;;0.10;0.10;;;4.90;91.50;;;;;;4968521;28;20051;-74
2024/01/25 07:24:41;;;;;;;0.10;0.10;;;4.90;91.50;;;;;;4969594;28;20566;-72
2024/01/25 07:27:06;;;;;;;1.02;0.95;;;4.90;91.40;;;;;;4970500;28;20047;-71
2024/01/25 07:29:32;;;;;;;1.75;1.25;;;4.90;91.40;;;;;;4969769;28;20050;-73
2024/01/25 07:31:58;;;;;;;0.43;0.43;;;4.90;91.50;;;;;;4966858;28;20047;-73
2024/01/25 07:34:23;;;;;;;0.10;0.10;;;5.00;91.50;;;;;;4959873;28;20067;-71
2024/01/25 07:36:49;;;;;;;0.00;0.00;;;5.10;91.50;;;;;;4962192;28;20039;-70
2024/01/25 07:39:14;;;;;;;0.00;0.00;;;5.10;91.50;;;;;;4967183;28;20047;-70
2024/01/25 07:41:40;;;;;;;0.00;0.00;;;5.10;91.40;;;;;;4974079;28;20054;-71
2024/01/25 07:44:06;;;;;;;0.28;0.28;;;5.10;91.20;;;;;;4974487;28;20038;-71
2024/01/25 07:46:31;;;;;;;0.00;0.00;;;5.10;91.20;;;;;;4977226;28;20043;-70
2024/01/25 07:48:57;;;;;;;0.20;0.20;;;5.10;91.20;;;;;;4977024;28;20641;-71
2024/01/25 07:51:23;;;;;;;0.00;0.00;;;5.00;91.10;;;;;;4976948;28;20046;-70
2024/01/25 07:53:48;;;;;;;0.73;0.73;;;5.00;91.10;;;;;;4977413;28;20034;-70
2024/01/25 07:56:14;;;;;;;0.00;0.00;;;5.00;91.20;;;;;;4992890;28;20051;-71
2024/01/25 07:58:40;;;;;;;1.17;1.13;;;4.90;91.20;;;;;;4978363;28;20058;-71
2024/01/25 08:01:06;;;;;;;0.00;0.00;;;5.00;91.20;;;;;;4967481;28;20129;-72
2024/01/25 08:03:32;;;;;;;0.08;0.08;;;5.10;91.20;;;;;;4976810;28;20102;-71
2024/01/25 08:06:02;;;;;;;0.75;0.75;;;5.10;91.20;;;;;;4977189;28;20042;-71
2024/01/25 08:08:28;;;;;;;0.15;0.15;;;5.10;91.20;;;;;;4977126;28;20047;-71
2024/01/25 08:10:54;;;;;;;0.20;0.20;;;5.10;91.30;;;;;;4977519;28;20130;-72
2024/01/25 08:13:20;;;;;;;0.00;0.00;;;5.10;91.30;;;;;;4977056;28;20130;-72
2024/01/25 08:15:45;;;;;;;0.47;0.47;;;5.10;91.20;;;;;;4973143;28;20078;-71
2024/01/25 08:18:11;;;;;;;0.10;0.10;;;5.10;91.20;;;;;;4963961;28;20114;-74
2024/01/25 08:20:37;;;;;;;0.00;0.00;;;5.10;91.20;;;;;;4959659;28;20515;-73
2024/01/25 08:23:03;;;;;;;0.00;0.00;;;5.10;91.30;;;;;;4969403;28;20043;-73
2024/01/25 08:25:29;;;;;;;0.00;0.00;;;5.10;91.30;;;;;;4969160;28;20174;-73
2024/01/25 08:27:54;;;;;;;0.03;0.03;;;5.10;91.30;;;;;;4969729;28;20049;-73
2024/01/25 08:30:20;;;;;;;0.32;0.28;;;5.10;91.20;;;;;;4968699;28;20046;-73
2024/01/25 08:32:46;;;;;;;0.00;0.00;;;5.10;91.20;;;;;;4984802;28;20896;-72
2024/01/25 08:35:11;;;;;;;0.00;0.00;;;5.10;91.30;;;;;;4969479;28;20050;-73
2024/01/25 08:37:37;;;;;;;0.00;0.00;;;5.20;91.30;;;;;;4968495;28;20047;-73
2024/01/25 08:40:06;;;;;;;0.00;0.00;;;5.10;91.20;;;;;;4969708;28;20182;-73
2024/01/25 08:42:32;;;;;;;0.00;0.00;;;5.20;91.20;;;;;;4984143;28;20054;-73
2024/01/25 08:44:58;;;;;;;0.00;0.00;;;5.10;91.10;;;;;;4968446;28;20054;-73
2024/01/25 08:47:24;;;;;;;0.00;0.00;;;5.10;91.10;;;;;;4969085;28;20416;-73
2024/01/25 08:49:49;;;;;;;0.32;0.32;;;5.10;91.20;;;;;;4969182;28;20074;-73
2024/01/25 08:52:15;;;;;;;0.00;0.00;;;5.10;91.20;;;;;;4969719;28;20574;-73
2024/01/25 08:54:42;;;;;;;0.00;0.00;;;5.10;91.30;;;;;;4969354;28;20054;-73
2024/01/25 08:57:07;;;;;;;0.47;0.47;;;5.10;91.20;;;;;;4956644;28;20055;-73
2024/01/25 08:59:37;;;;;;;0.10;0.10;;;5.10;91.30;;;;;;4968518;28;20038;-73
2024/01/25 09:02:05;;;;;;;0.10;0.10;;;5.20;91.30;;;;;;4963851;28;20054;-73
2024/01/25 09:04:32;;;;;;;0.43;0.43;;;5.20;91.40;;;;;;4968205;28;20054;-72
2024/01/25 09:06:58;;;;;;;0.00;0.00;;;5.20;91.50;;;;;;4963721;28;20082;-74
2024/01/25 09:09:23;;;;;;;0.00;0.00;;;5.20;91.50;;;;;;4968994;28;20055;-73
2024/01/25 09:11:50;;;;;;;0.00;0.00;;;5.30;91.40;;;;;;4968733;28;20094;-73
2024/01/25 09:14:15;;;;;;;0.10;0.10;;;5.30;91.40;;;;;;4969024;28;20132;-73
2024/01/25 09:16:42;;;;;;;0.03;0.03;;;5.40;91.40;;;;;;4969148;28;21124;-73
2024/01/25 09:19:08;;;;;;;0.10;0.10;;;5.40;91.40;;;;;;4973217;28;20058;-73
2024/01/25 09:21:33;;;;;;;0.20;0.20;;;5.40;91.30;;;;;;4987307;28;20766;-74
2024/01/25 09:23:59;;;;;;;0.10;0.10;;;5.50;91.40;;;;;;4987819;28;20125;-74
2024/01/25 09:26:25;;;;;;;0.00;0.00;;;5.50;91.40;;;;;;4986508;28;20051;-73
2024/01/25 09:28:51;;;;;;;0.20;0.20;;;5.50;91.40;;;;;;4988339;28;20504;-74
2024/01/25 09:31:16;;;;;;;0.00;0.00;;;5.60;91.30;;;;;;4972399;28;20074;-74
2024/01/25 09:33:42;;;;;;;0.55;0.55;;;5.60;91.30;;;;;;4967552;28;20051;-74
2024/01/25 09:36:08;;;;;;;0.10;0.10;;;5.60;91.40;;;;;;4966595;28;20047;-73
2024/01/25 09:38:33;;;;;;;0.10;0.10;;;5.60;91.40;;;;;;4955838;28;20067;-74
2024/01/25 09:41:01;;;;;;;0.00;0.00;;;5.70;91.40;;;;;;4961889;28;20042;-74
2024/01/25 09:43:27;;;;;;;0.73;0.73;;;5.70;91.40;;;;;;4967507;28;20053;-73
2024/01/25 09:45:55;;;;;;;0.10;0.10;;;5.80;91.40;;;;;;4968413;28;20046;-73
2024/01/25 09:48:21;;;;;;;5.00;2.65;;;5.80;91.30;;;;;;4968285;28;20114;-73
2024/01/25 09:50:48;;;;;;;0.10;0.10;;;5.80;91.30;;;;;;4968294;28;20644;-73
2024/01/25 09:53:33;;;;;;;0.10;0.10;;;5.80;91.40;;;;;;4963413;28;20102;-74
2024/01/25 09:56:12;;;;;;;0.00;0.00;;;5.90;91.40;;;;;;4961660;28;20504;-73
2024/01/25 09:58:41;;;;;;;0.10;0.10;;;5.90;91.40;;;;;;4960986;28;20105;-73
2024/01/25 10:01:12;;;;;;;0.00;0.00;;;5.90;91.50;;;;;;4966923;28;20050;-73
2024/01/25 10:03:40;;;;;;;0.00;0.00;;;5.90;91.50;;;;;;4982568;28;20054;-73
2024/01/25 10:06:06;;;;;;;0.08;0.08;;;6.00;91.60;;;;;;4965716;28;20155;-73
2024/01/25 10:08:31;;;;;;;0.00;0.00;;;6.10;91.60;;;;;;4958085;28;20080;-71
2024/01/25 10:10:57;;;;;;;0.10;0.10;;;6.10;91.60;;;;;;4959021;28;20054;-71
2024/01/25 10:13:23;;;;;;;0.00;0.00;;;6.10;91.50;;;;;;4968795;28;20053;-71
2024/01/25 10:15:48;;;;;;;0.00;0.00;;;6.10;91.60;;;;;;4969194;28;20959;-71
2024/01/25 10:18:15;;;;;;;0.05;0.05;;;6.10;91.60;;;;;;4968036;28;20038;-71
2024/01/25 10:20:42;;;;;;;0.00;0.00;;;6.20;91.60;;;;;;4968695;28;20130;-71
2024/01/25 10:23:09;;;;;;;0.10;0.10;;;6.20;91.60;;;;;;4968381;28;20050;-71
2024/01/25 10:25:38;;;;;;;0.10;0.10;;;6.40;91.60;;;;;;4970206;28;20046;-71
2024/01/25 10:28:07;;;;;;;3.72;0.95;;;6.30;91.40;;;;;;4972529;28;20078;-71
2024/01/25 10:30:35;;;;;;;0.00;0.00;;;6.30;91.50;;;;;;4973975;28;20122;-71
2024/01/25 10:33:01;;;;;;;0.95;0.88;;;6.30;91.40;;;;;;4972692;28;20472;-71
2024/01/25 10:35:28;;;;;;;0.30;0.30;;;6.50;91.40;;;;;;4971565;28;20105;-71
2024/01/25 10:37:54;;;;;;;0.52;0.50;;;6.40;91.40;;;;;;4970549;28;20513;-73
2024/01/25 10:40:21;;;;;;;0.00;0.00;;;6.50;91.30;;;;;;4974316;28;20050;-73
2024/01/25 10:42:47;;;;;;;0.05;0.05;;;6.50;91.20;;;;;;4975271;28;20132;-73
2024/01/25 10:45:13;;;;;;;0.00;0.00;;;6.60;91.40;;;;;;4966086;28;20150;-73
2024/01/25 10:47:40;;;;;;;0.10;0.10;;;6.60;91.50;;;;;;4972467;28;20094;-73
2024/01/25 10:50:11;;;;;;;0.93;0.75;;;6.70;91.40;;;;;;4980864;28;20511;-73
2024/01/25 10:52:38;;;;;;;0.10;0.10;;;6.70;91.40;;;;;;4992341;28;20047;-73
2024/01/25 10:55:07;;;;;;;0.05;0.05;;;6.80;91.30;;;;;;4990346;28;20085;-73
2024/01/25 10:57:43;;;;;;;0.00;0.00;;;6.70;91.30;;;;;;4972873;28;20058;-73
2024/01/25 11:00:11;;;;;;;1.02;1.02;;;6.80;91.30;;;;;;4972695;28;20105;-73
2024/01/25 11:02:40;;;;;;;0.10;0.10;;;6.70;91.10;;;;;;4971946;28;20074;-73
2024/01/25 11:05:10;;;;;;;0.03;0.03;;;6.70;91.10;;;;;;4973433;28;20081;-73
2024/01/25 11:07:43;;;;;;;0.00;0.00;;;6.80;91.30;;;;;;4966975;28;20472;-72
2024/01/25 11:10:20;;;;;;;0.43;0.43;;;6.80;91.20;;;;;;4972225;28;20081;-73
2024/01/25 11:12:55;;;;;;;0.10;0.10;;;6.90;91.10;;;;;;4976414;28;20058;-74
2024/01/25 11:15:26;;;;;;;0.40;0.40;;;6.90;91.00;;;;;;4984152;28;20061;-74
2024/01/25 11:17:54;;;;;;;2.20;1.85;;;6.90;91.00;;;;;;4971844;28;20512;-74
2024/01/25 11:20:24;;;;;;;0.00;0.00;;;6.90;91.10;;;;;;4972081;28;20039;-73
2024/01/25 11:23:04;;;;;;;0.00;0.00;;;6.90;91.00;;;;;;4972056;28;20061;-73
2024/01/25 11:25:35;;;;;;;0.00;0.00;;;7.10;90.80;;;;;;4971972;28;20046;-73
2024/01/25 11:28:02;;;;;;;0.00;0.00;;;7.10;90.70;;;;;;4972449;28;20407;-74
2024/01/25 11:30:31;;;;;;;0.00;0.00;;;7.10;90.70;;;;;;4972202;28;20043;-74
2024/01/25 11:32:57;;;;;;;0.08;0.08;;;7.10;90.30;;;;;;4970958;28;20074;-74
2024/01/25 11:35:23;;;;;;;0.00;0.00;;;7.10;90.30;;;;;;4968237;28;20894;-73
2024/01/25 11:37:51;;;;;;;0.00;0.00;;;7.10;90.20;;;;;;4971694;28;20508;-74
2024/01/25 11:40:18;;;;;;;0.40;0.40;;;7.10;90.10;;;;;;4962726;28;20157;-75
2024/01/25 11:42:45;;;;;;;0.00;0.00;;;7.10;90.30;;;;;;4960900;28;20523;-75
2024/01/25 11:45:11;;;;;;;0.00;0.00;;;7.10;90.20;;;;;;4980130;28;20054;-75
2024/01/25 11:47:38;;;;;;;0.00;0.00;;;7.10;90.20;;;;;;4990037;28;20043;-75
2024/01/25 11:50:06;;;;;;;0.10;0.10;;;7.20;90.20;;;;;;5001979;28;20038;-75
2024/01/25 11:52:33;;;;;;;0.20;0.20;;;7.30;90.20;;;;;;4975110;28;20058;-74
2024/01/25 11:55:02;;;;;;;0.08;0.08;;;7.40;90.20;;;;;;4970876;28;20046;-75
2024/01/25 11:57:30;;;;;;;0.00;0.00;;;7.30;90.10;;;;;;4956085;28;20393;-75
2024/01/25 11:59:56;;;;;;;0.03;0.03;;;7.40;90.00;;;;;;4955786;28;20061;-75
2024/01/25 12:02:23;;;;;;;0.03;0.03;;;7.40;90.00;;;;;;4954604;28;20087;-75
2024/01/25 12:04:49;;;;;;;0.03;0.03;;;7.40;90.10;;;;;;4959441;28;20100;-75
2024/01/25 12:07:15;;;;;;;0.00;0.00;;;7.40;90.00;;;;;;4968576;28;20043;-74
2024/01/25 12:09:41;;;;;;;0.00;0.00;;;7.40;90.00;;;;;;4969071;28;20380;-76
2024/01/25 12:12:09;;;;;;;0.20;0.20;;;7.50;90.00;;;;;;4960425;28;20408;-75
2024/01/25 12:14:35;;;;;;;0.30;0.30;;;7.50;89.90;;;;;;4970112;28;20121;-76
2024/01/25 12:17:01;;;;;;;0.10;0.10;;;7.60;90.00;;;;;;4970231;28;20043;-76
2024/01/25 12:19:28;;;;;;;0.73;0.73;;;7.60;89.90;;;;;;4969824;28;20054;-75
2024/01/25 12:21:56;;;;;;;0.00;0.00;;;7.60;89.90;;;;;;4971147;28;20053;-76
2024/01/25 12:24:21;;;;;;;0.73;0.73;;;7.60;89.90;;;;;;4964817;28;20047;-75
2024/01/25 12:26:47;;;;;;;0.00;0.00;;;7.70;89.80;;;;;;4958149;28;20043;-75
2024/01/25 12:29:13;;;;;;;3.80;1.35;;;7.70;89.70;;;;;;4960004;28;20051;-75
2024/01/25 12:31:39;;;;;;;0.00;0.00;;;7.70;89.60;;;;;;4963487;28;20381;-75
2024/01/25 12:34:14;;;;;;;0.30;0.30;;;7.70;89.60;;;;;;4962444;28;20039;-75
2024/01/25 12:36:40;;;;;;;0.08;0.08;;;7.70;89.60;;;;;;4959017;28;20057;-75
2024/01/25 12:39:06;;;;;;;0.10;0.10;;;7.70;89.50;;;;;;4957058;28;20050;-75
2024/01/25 12:41:32;;;;;;;0.00;0.00;;;7.70;89.50;;;;;;4974132;28;20574;-75
2024/01/25 12:43:58;;;;;;;0.00;0.00;;;7.60;89.30;;;;;;4957872;28;20038;-75
2024/01/25 12:46:24;;;;;;;0.08;0.08;;;7.60;89.10;;;;;;4958931;28;20051;-75
2024/01/25 12:48:54;;;;;;;0.00;0.00;;;7.60;89.30;;;;;;4960764;28;20045;-75
2024/01/25 12:51:20;;;;;;;0.20;0.20;;;7.60;89.30;;;;;;4975276;28;20054;-69
2024/01/25 12:53:47;;;;;;;0.20;0.20;;;7.70;89.40;;;;;;4970174;28;20279;-76